sensor_id;sensor_type;location;lat;lon;timestamp;pressure;altitude;pressure_sealevel;temperature;humidity
50282;BME280;36176;51.506;10.272;2022-10-26T00:01:33;99634.47;;;7.40;98.15
50282;BME280;36176;51.506;10.272;2022-10-26T00:04:00;99630.91;;;7.41;97.85
50282;BME280;36176;51.506;10.272;2022-10-26T00:06:28;99636.16;;;7.41;97.65
50282;BME280;36176;51.506;10.272;2022-10-26T00:08:56;99623.91;;;7.40;97.70
50282;BME280;36176;51.506;10.272;2022-10-26T00:11:26;99627.41;;;7.40;97.74
50282;BME280;36176;51.506;10.272;2022-10-26T00:13:56;99621.22;;;7.41;97.85
50282;BME280;36176;51.506;10.272;2022-10-26T00:16:25;99617.59;;;7.44;98.15
50282;BME280;36176;51.506;10.272;2022-10-26T00:18:54;99629.91;;;7.45;98.46
50282;BME280;36176;51.506;10.272;2022-10-26T00:21:22;99629.09;;;7.43;98.35
50282;BME280;36176;51.506;10.272;2022-10-26T00:23:51;99620.31;;;7.42;98.68
50282;BME280;36176;51.506;10.272;2022-10-26T00:26:18;99619.38;;;7.43;98.43
50282;BME280;36176;51.506;10.272;2022-10-26T00:28:46;99617.81;;;7.38;98.10
50282;BME280;36176;51.506;10.272;2022-10-26T00:31:14;99621.28;;;7.40;98.05
50282;BME280;36176;51.506;10.272;2022-10-26T00:33:42;99619.44;;;7.42;98.25
50282;BME280;36176;51.506;10.272;2022-10-26T00:36:27;99624.69;;;7.42;98.00
50282;BME280;36176;51.506;10.272;2022-10-26T00:38:57;99622.13;;;7.40;97.97
50282;BME280;36176;51.506;10.272;2022-10-26T00:41:29;99616.91;;;7.39;97.74
50282;BME280;36176;51.506;10.272;2022-10-26T00:43:57;99618.69;;;7.38;97.76
50282;BME280;36176;51.506;10.272;2022-10-26T00:46:36;99622.28;;;7.36;98.09
50282;BME280;36176;51.506;10.272;2022-10-26T00:49:11;99626.47;;;7.41;98.07
50282;BME280;36176;51.506;10.272;2022-10-26T00:51:43;99624.56;;;7.46;98.54
50282;BME280;36176;51.506;10.272;2022-10-26T00:54:17;99616.44;;;7.54;98.39
50282;BME280;36176;51.506;10.272;2022-10-26T00:56:51;99613.47;;;7.63;98.98
50282;BME280;36176;51.506;10.272;2022-10-26T00:59:20;99620.25;;;7.71;99.41
50282;BME280;36176;51.506;10.272;2022-10-26T01:01:48;99618.13;;;7.82;99.11
50282;BME280;36176;51.506;10.272;2022-10-26T01:04:16;99615.16;;;7.93;99.69
50282;BME280;36176;51.506;10.272;2022-10-26T01:06:45;99623.63;;;8.02;99.55
50282;BME280;36176;51.506;10.272;2022-10-26T01:09:13;99618.88;;;8.12;99.29
50282;BME280;36176;51.506;10.272;2022-10-26T01:11:40;99612.41;;;8.21;99.64
50282;BME280;36176;51.506;10.272;2022-10-26T01:14:09;99610.19;;;8.34;99.76
50282;BME280;36176;51.506;10.272;2022-10-26T01:20:00;99613.00;;;8.54;99.53
50282;BME280;36176;51.506;10.272;2022-10-26T01:27:57;99610.31;;;8.79;98.87
50282;BME280;36176;51.506;10.272;2022-10-26T01:30:35;99606.41;;;8.89;98.81
50282;BME280;36176;51.506;10.272;2022-10-26T01:36:26;99593.66;;;9.01;99.07
50282;BME280;36176;51.506;10.272;2022-10-26T01:39:29;99594.31;;;9.06;99.05
50282;BME280;36176;51.506;10.272;2022-10-26T01:42:04;99592.38;;;9.11;99.12
50282;BME280;36176;51.506;10.272;2022-10-26T01:44:39;99585.91;;;9.18;98.63
50282;BME280;36176;51.506;10.272;2022-10-26T01:47:14;99587.53;;;9.22;98.65
50282;BME280;36176;51.506;10.272;2022-10-26T01:49:54;99582.97;;;9.26;99.08
50282;BME280;36176;51.506;10.272;2022-10-26T01:52:26;99576.63;;;9.30;98.84
50282;BME280;36176;51.506;10.272;2022-10-26T01:55:03;99580.88;;;9.34;98.24
50282;BME280;36176;51.506;10.272;2022-10-26T01:57:37;99578.16;;;9.35;98.15
50282;BME280;36176;51.506;10.272;2022-10-26T02:00:11;99585.06;;;9.40;97.27
50282;BME280;36176;51.506;10.272;2022-10-26T02:03:05;99570.84;;;9.42;97.03
50282;BME280;36176;51.506;10.272;2022-10-26T02:16:56;99564.53;;;9.24;97.27
50282;BME280;36176;51.506;10.272;2022-10-26T02:20:03;99565.63;;;9.19;96.65
50282;BME280;36176;51.506;10.272;2022-10-26T02:22:25;99552.59;;;9.14;96.98
50282;BME280;36176;51.506;10.272;2022-10-26T02:25:11;99559.84;;;9.09;97.34
50282;BME280;36176;51.506;10.272;2022-10-26T02:27:46;99552.16;;;9.03;96.67
50282;BME280;36176;51.506;10.272;2022-10-26T02:30:18;99551.53;;;8.96;96.63
50282;BME280;36176;51.506;10.272;2022-10-26T02:32:51;99549.97;;;8.90;97.21
50282;BME280;36176;51.506;10.272;2022-10-26T02:35:29;99549.31;;;8.85;96.86
50282;BME280;36176;51.506;10.272;2022-10-26T02:38:03;99541.72;;;8.76;97.60
50282;BME280;36176;51.506;10.272;2022-10-26T02:40:37;99544.50;;;8.73;97.41
50282;BME280;36176;51.506;10.272;2022-10-26T02:43:13;99538.41;;;8.71;97.15
50282;BME280;36176;51.506;10.272;2022-10-26T02:46:06;99543.00;;;8.66;97.47
50282;BME280;36176;51.506;10.272;2022-10-26T02:48:38;99542.28;;;8.62;97.13
50282;BME280;36176;51.506;10.272;2022-10-26T02:51:28;99544.13;;;8.60;97.38
50282;BME280;36176;51.506;10.272;2022-10-26T02:54:36;99542.56;;;8.55;97.39
50282;BME280;36176;51.506;10.272;2022-10-26T02:57:07;99537.50;;;8.48;97.38
50282;BME280;36176;51.506;10.272;2022-10-26T02:59:44;99543.81;;;8.44;97.57
50282;BME280;36176;51.506;10.272;2022-10-26T03:02:18;99542.16;;;8.42;97.21
50282;BME280;36176;51.506;10.272;2022-10-26T03:04:52;99538.72;;;8.40;97.06
50282;BME280;36176;51.506;10.272;2022-10-26T03:07:22;99539.66;;;8.37;97.16
50282;BME280;36176;51.506;10.272;2022-10-26T03:09:50;99532.88;;;8.30;97.21
50282;BME280;36176;51.506;10.272;2022-10-26T03:12:25;99528.63;;;8.26;97.25
50282;BME280;36176;51.506;10.272;2022-10-26T03:15:02;99535.16;;;8.16;97.75
50282;BME280;36176;51.506;10.272;2022-10-26T03:17:35;99531.84;;;8.10;97.92
50282;BME280;36176;51.506;10.272;2022-10-26T03:20:03;99534.50;;;8.09;97.35
50282;BME280;36176;51.506;10.272;2022-10-26T03:22:33;99534.75;;;8.03;97.37
50282;BME280;36176;51.506;10.272;2022-10-26T03:25:04;99539.34;;;7.98;97.38
50282;BME280;36176;51.506;10.272;2022-10-26T03:27:31;99540.34;;;7.94;97.36
50282;BME280;36176;51.506;10.272;2022-10-26T03:30:02;99540.56;;;7.87;97.36
50282;BME280;36176;51.506;10.272;2022-10-26T03:32:29;99539.81;;;7.84;97.44
50282;BME280;36176;51.506;10.272;2022-10-26T03:34:57;99541.59;;;7.83;97.79
50282;BME280;36176;51.506;10.272;2022-10-26T03:37:30;99535.50;;;7.81;97.77
50282;BME280;36176;51.506;10.272;2022-10-26T03:40:16;99537.28;;;7.81;98.39
50282;BME280;36176;51.506;10.272;2022-10-26T03:43:19;99530.34;;;7.78;98.37
50282;BME280;36176;51.506;10.272;2022-10-26T03:46:09;99533.72;;;7.82;98.34
50282;BME280;36176;51.506;10.272;2022-10-26T03:48:56;99534.41;;;7.87;98.82
50282;BME280;36176;51.506;10.272;2022-10-26T03:51:24;99533.41;;;7.91;98.35
50282;BME280;36176;51.506;10.272;2022-10-26T03:54:12;99527.19;;;7.92;98.79
50282;BME280;36176;51.506;10.272;2022-10-26T03:56:46;99523.75;;;7.90;98.69
50282;BME280;36176;51.506;10.272;2022-10-26T03:59:21;99526.34;;;7.92;99.05
50282;BME280;36176;51.506;10.272;2022-10-26T04:01:48;99534.22;;;7.93;98.69
50282;BME280;36176;51.506;10.272;2022-10-26T04:04:21;99523.75;;;7.90;98.60
50282;BME280;36176;51.506;10.272;2022-10-26T04:06:48;99535.22;;;7.89;99.04
50282;BME280;36176;51.506;10.272;2022-10-26T04:09:18;99536.03;;;7.91;98.50
50282;BME280;36176;51.506;10.272;2022-10-26T04:11:45;99532.59;;;7.89;98.25
50282;BME280;36176;51.506;10.272;2022-10-26T04:14:14;99537.91;;;7.87;98.11
50282;BME280;36176;51.506;10.272;2022-10-26T04:16:42;99534.41;;;7.87;98.39
50282;BME280;36176;51.506;10.272;2022-10-26T04:19:09;99535.34;;;7.86;98.25
50282;BME280;36176;51.506;10.272;2022-10-26T04:21:37;99520.50;;;7.83;98.65
50282;BME280;36176;51.506;10.272;2022-10-26T04:24:22;99526.81;;;7.78;97.69
50282;BME280;36176;51.506;10.272;2022-10-26T04:26:58;99541.38;;;7.64;98.16
50282;BME280;36176;51.506;10.272;2022-10-26T04:29:25;99530.00;;;7.62;98.55
50282;BME280;36176;51.506;10.272;2022-10-26T04:31:53;99535.38;;;7.59;98.26
50282;BME280;36176;51.506;10.272;2022-10-26T04:34:20;99539.78;;;7.59;98.77
50282;BME280;36176;51.506;10.272;2022-10-26T04:36:47;99530.03;;;7.61;97.88
50282;BME280;36176;51.506;10.272;2022-10-26T04:39:15;99527.41;;;7.61;98.39
50282;BME280;36176;51.506;10.272;2022-10-26T04:41:45;99527.53;;;7.58;98.04
50282;BME280;36176;51.506;10.272;2022-10-26T04:44:15;99524.03;;;7.57;98.15
50282;BME280;36176;51.506;10.272;2022-10-26T04:46:42;99526.78;;;7.54;97.60
50282;BME280;36176;51.506;10.272;2022-10-26T04:49:09;99522.44;;;7.52;97.92
50282;BME280;36176;51.506;10.272;2022-10-26T04:51:37;99524.16;;;7.54;98.21
50282;BME280;36176;51.506;10.272;2022-10-26T04:54:04;99531.94;;;7.57;97.99
50282;BME280;36176;51.506;10.272;2022-10-26T04:56:35;99516.94;;;7.59;98.02
50282;BME280;36176;51.506;10.272;2022-10-26T04:59:43;99515.16;;;7.60;98.64
50282;BME280;36176;51.506;10.272;2022-10-26T05:02:20;99515.81;;;7.66;98.71
50282;BME280;36176;51.506;10.272;2022-10-26T05:05:09;99521.78;;;7.72;98.19
50282;BME280;36176;51.506;10.272;2022-10-26T05:07:41;99518.97;;;7.76;98.44
50282;BME280;36176;51.506;10.272;2022-10-26T05:10:12;99520.66;;;7.79;98.92
50282;BME280;36176;51.506;10.272;2022-10-26T05:12:39;99522.19;;;7.84;97.98
50282;BME280;36176;51.506;10.272;2022-10-26T05:27:17;99515.75;;;7.93;98.46
50282;BME280;36176;51.506;10.272;2022-10-26T05:29:52;99514.81;;;7.94;99.28
50282;BME280;36176;51.506;10.272;2022-10-26T05:32:19;99516.44;;;7.98;98.93
50282;BME280;36176;51.506;10.272;2022-10-26T05:34:49;99512.88;;;7.99;99.00
50282;BME280;36176;51.506;10.272;2022-10-26T05:37:16;99518.75;;;8.07;99.11
50282;BME280;36176;51.506;10.272;2022-10-26T05:39:43;99519.44;;;8.13;99.09
50282;BME280;36176;51.506;10.272;2022-10-26T05:42:18;99515.88;;;8.14;99.03
50282;BME280;36176;51.506;10.272;2022-10-26T05:44:46;99519.19;;;8.19;99.41
50282;BME280;36176;51.506;10.272;2022-10-26T05:47:17;99519.00;;;8.25;99.48
50282;BME280;36176;51.506;10.272;2022-10-26T05:49:44;99520.66;;;8.27;99.39
50282;BME280;36176;51.506;10.272;2022-10-26T05:52:21;99527.47;;;8.33;99.32
50282;BME280;36176;51.506;10.272;2022-10-26T05:55:01;99531.72;;;8.37;99.44
50282;BME280;36176;51.506;10.272;2022-10-26T05:57:38;99527.25;;;8.41;99.25
50282;BME280;36176;51.506;10.272;2022-10-26T06:04:25;99541.19;;;8.44;99.20
50282;BME280;36176;51.506;10.272;2022-10-26T06:07:01;99535.78;;;8.47;99.09
50282;BME280;36176;51.506;10.272;2022-10-26T06:09:29;99544.47;;;8.51;99.00
50282;BME280;36176;51.506;10.272;2022-10-26T06:12:06;99549.63;;;8.54;98.70
50282;BME280;36176;51.506;10.272;2022-10-26T06:14:34;99540.53;;;8.61;98.46
50282;BME280;36176;51.506;10.272;2022-10-26T06:21:23;99550.94;;;8.66;98.44
50282;BME280;36176;51.506;10.272;2022-10-26T06:24:21;99551.69;;;8.69;98.41
50282;BME280;36176;51.506;10.272;2022-10-26T06:29:36;99553.22;;;8.75;98.55
50282;BME280;36176;51.506;10.272;2022-10-26T06:32:08;99544.50;;;8.73;98.41
50282;BME280;36176;51.506;10.272;2022-10-26T06:34:43;99549.88;;;8.71;98.34
50282;BME280;36176;51.506;10.272;2022-10-26T06:37:16;99555.16;;;8.71;98.02
50282;BME280;36176;51.506;10.272;2022-10-26T06:39:45;99554.16;;;8.74;98.36
50282;BME280;36176;51.506;10.272;2022-10-26T06:42:18;99559.53;;;8.71;98.07
50282;BME280;36176;51.506;10.272;2022-10-26T06:44:46;99557.59;;;8.76;98.56
50282;BME280;36176;51.506;10.272;2022-10-26T06:47:25;99558.09;;;8.86;98.63
50282;BME280;36176;51.506;10.272;2022-10-26T06:50:02;99555.25;;;8.90;99.29
50282;BME280;36176;51.506;10.272;2022-10-26T06:55:49;99559.59;;;9.15;98.40
50282;BME280;36176;51.506;10.272;2022-10-26T06:58:22;99555.00;;;9.20;98.79
50282;BME280;36176;51.506;10.272;2022-10-26T07:00:53;99559.25;;;9.24;98.39
50282;BME280;36176;51.506;10.272;2022-10-26T07:03:20;99559.72;;;9.34;98.78
50282;BME280;36176;51.506;10.272;2022-10-26T07:05:56;99558.56;;;9.41;98.31
50282;BME280;36176;51.506;10.272;2022-10-26T07:08:23;99569.63;;;9.51;98.04
50282;BME280;36176;51.506;10.272;2022-10-26T07:10:51;99561.31;;;9.60;97.94
50282;BME280;36176;51.506;10.272;2022-10-26T07:13:18;99572.47;;;9.67;97.92
50282;BME280;36176;51.506;10.272;2022-10-26T07:15:45;99574.91;;;9.71;98.15
50282;BME280;36176;51.506;10.272;2022-10-26T07:18:14;99569.31;;;9.79;97.77
50282;BME280;36176;51.506;10.272;2022-10-26T07:20:41;99572.50;;;9.87;97.62
50282;BME280;36176;51.506;10.272;2022-10-26T07:23:09;99577.59;;;9.92;97.78
50282;BME280;36176;51.506;10.272;2022-10-26T07:25:39;99579.91;;;9.99;98.07
50282;BME280;36176;51.506;10.272;2022-10-26T07:28:10;99584.81;;;10.09;97.53
50282;BME280;36176;51.506;10.272;2022-10-26T07:30:50;99580.81;;;10.19;98.38
50282;BME280;36176;51.506;10.272;2022-10-26T07:33:25;99578.53;;;10.32;98.21
50282;BME280;36176;51.506;10.272;2022-10-26T07:35:52;99579.72;;;10.45;97.31
50282;BME280;36176;51.506;10.272;2022-10-26T07:38:26;99583.81;;;10.52;97.22
50282;BME280;36176;51.506;10.272;2022-10-26T07:40:53;99586.94;;;10.60;97.58
50282;BME280;36176;51.506;10.272;2022-10-26T07:43:24;99588.28;;;10.71;96.82
50282;BME280;36176;51.506;10.272;2022-10-26T07:45:51;99589.56;;;10.81;97.27
50282;BME280;36176;51.506;10.272;2022-10-26T07:48:20;99591.44;;;10.98;97.37
50282;BME280;36176;51.506;10.272;2022-10-26T07:50:47;99591.06;;;11.05;96.35
50282;BME280;36176;51.506;10.272;2022-10-26T07:53:15;99587.97;;;11.15;95.87
50282;BME280;36176;51.506;10.272;2022-10-26T07:55:42;99591.78;;;11.28;95.96
50282;BME280;36176;51.506;10.272;2022-10-26T07:58:09;99597.41;;;11.39;95.89
50282;BME280;36176;51.506;10.272;2022-10-26T08:00:37;99596.88;;;11.50;94.93
50282;BME280;36176;51.506;10.272;2022-10-26T08:03:07;99598.09;;;11.62;95.52
50282;BME280;36176;51.506;10.272;2022-10-26T08:05:34;99589.44;;;11.76;95.72
50282;BME280;36176;51.506;10.272;2022-10-26T08:08:05;99595.94;;;11.87;95.87
50282;BME280;36176;51.506;10.272;2022-10-26T08:10:32;99584.63;;;12.01;95.22
50282;BME280;36176;51.506;10.272;2022-10-26T08:13:19;99595.84;;;12.06;94.81
50282;BME280;36176;51.506;10.272;2022-10-26T08:16:52;99598.44;;;12.25;94.75
50282;BME280;36176;51.506;10.272;2022-10-26T08:19:22;99590.03;;;12.33;94.48
50282;BME280;36176;51.506;10.272;2022-10-26T08:22:02;99597.22;;;12.48;93.86
50282;BME280;36176;51.506;10.272;2022-10-26T08:27:44;99601.81;;;12.78;92.99
50282;BME280;36176;51.506;10.272;2022-10-26T08:30:26;99599.88;;;12.97;92.43
50282;BME280;36176;51.506;10.272;2022-10-26T08:33:01;99599.22;;;13.10;91.08
50282;BME280;36176;51.506;10.272;2022-10-26T08:35:30;99596.97;;;13.18;90.61
50282;BME280;36176;51.506;10.272;2022-10-26T08:37:58;99604.06;;;13.35;90.74
50282;BME280;36176;51.506;10.272;2022-10-26T08:40:29;99603.78;;;13.55;91.03
50282;BME280;36176;51.506;10.272;2022-10-26T08:46:35;99599.38;;;14.00;91.10
50282;BME280;36176;51.506;10.272;2022-10-26T08:49:24;99595.84;;;14.30;89.72
50282;BME280;36176;51.506;10.272;2022-10-26T08:52:23;99589.03;;;14.55;88.23
50282;BME280;36176;51.506;10.272;2022-10-26T08:55:19;99582.94;;;14.67;87.59
50282;BME280;36176;51.506;10.272;2022-10-26T08:58:30;99581.09;;;14.82;87.56
50282;BME280;36176;51.506;10.272;2022-10-26T09:01:34;99586.91;;;15.03;87.36
50282;BME280;36176;51.506;10.272;2022-10-26T09:04:14;99589.06;;;15.10;85.80
50282;BME280;36176;51.506;10.272;2022-10-26T09:16:22;99585.69;;;14.94;84.44
50282;BME280;36176;51.506;10.272;2022-10-26T09:19:20;99583.47;;;14.86;82.91
50282;BME280;36176;51.506;10.272;2022-10-26T09:25:33;99586.16;;;14.86;83.83
50282;BME280;36176;51.506;10.272;2022-10-26T09:31:12;99591.59;;;14.99;85.15
50282;BME280;36176;51.506;10.272;2022-10-26T09:33:48;99592.66;;;14.97;85.16
50282;BME280;36176;51.506;10.272;2022-10-26T09:36:18;99590.25;;;14.92;83.80
50282;BME280;36176;51.506;10.272;2022-10-26T09:39:14;99588.53;;;14.91;83.40
50282;BME280;36176;51.506;10.272;2022-10-26T09:47:37;99604.03;;;14.99;84.70
50282;BME280;36176;51.506;10.272;2022-10-26T09:50:33;99609.28;;;15.00;82.41
50282;BME280;36176;51.506;10.272;2022-10-26T09:53:01;99619.31;;;14.97;82.67
50282;BME280;36176;51.506;10.272;2022-10-26T09:55:33;99621.69;;;15.01;84.17
50282;BME280;36176;51.506;10.272;2022-10-26T09:58:58;99611.31;;;15.11;83.53
50282;BME280;36176;51.506;10.272;2022-10-26T10:01:37;99618.59;;;15.22;83.18
50282;BME280;36176;51.506;10.272;2022-10-26T10:04:17;99618.41;;;15.25;82.52
50282;BME280;36176;51.506;10.272;2022-10-26T10:09:37;99614.84;;;15.39;82.69
50282;BME280;36176;51.506;10.272;2022-10-26T10:12:24;99623.50;;;15.57;82.70
50282;BME280;36176;51.506;10.272;2022-10-26T10:19:00;99617.50;;;15.80;81.45
50282;BME280;36176;51.506;10.272;2022-10-26T10:21:47;99619.53;;;15.77;80.52
50282;BME280;36176;51.506;10.272;2022-10-26T10:24:35;99619.94;;;15.70;81.09
50282;BME280;36176;51.506;10.272;2022-10-26T10:31:29;99626.94;;;15.86;81.00
50282;BME280;36176;51.506;10.272;2022-10-26T10:34:28;99638.38;;;15.88;81.69
50282;BME280;36176;51.506;10.272;2022-10-26T10:36:51;99644.50;;;15.90;81.52
50282;BME280;36176;51.506;10.272;2022-10-26T10:42:20;99642.53;;;15.92;82.16
50282;BME280;36176;51.506;10.272;2022-10-26T10:45:31;99641.47;;;15.94;80.85
50282;BME280;36176;51.506;10.272;2022-10-26T10:49:32;99645.13;;;15.93;79.31
50282;BME280;36176;51.506;10.272;2022-10-26T10:52:36;99643.66;;;16.02;80.45
50282;BME280;36176;51.506;10.272;2022-10-26T10:55:09;99641.22;;;16.12;79.84
50282;BME280;36176;51.506;10.272;2022-10-26T11:01:20;99648.50;;;16.23;81.17
50282;BME280;36176;51.506;10.272;2022-10-26T11:04:12;99647.78;;;16.33;79.90
50282;BME280;36176;51.506;10.272;2022-10-26T11:07:08;99643.63;;;16.42;80.60
50282;BME280;36176;51.506;10.272;2022-10-26T11:09:48;99643.97;;;16.50;78.52
50282;BME280;36176;51.506;10.272;2022-10-26T11:12:33;99636.59;;;16.67;78.55
50282;BME280;36176;51.506;10.272;2022-10-26T11:15:14;99636.50;;;16.94;78.51
50282;BME280;36176;51.506;10.272;2022-10-26T11:18:06;99636.47;;;17.07;75.83
50282;BME280;36176;51.506;10.272;2022-10-26T11:21:19;99633.03;;;17.05;75.32
50282;BME280;36176;51.506;10.272;2022-10-26T11:31:24;99621.66;;;17.27;72.91
50282;BME280;36176;51.506;10.272;2022-10-26T11:34:42;99624.94;;;17.43;73.22
50282;BME280;36176;51.506;10.272;2022-10-26T11:40:41;99624.16;;;18.02;69.47
50282;BME280;36176;51.506;10.272;2022-10-26T11:43:44;99637.84;;;18.10;67.33
50282;BME280;36176;51.506;10.272;2022-10-26T11:47:06;99632.84;;;18.17;66.88
50282;BME280;36176;51.506;10.272;2022-10-26T11:50:04;99632.50;;;18.21;66.16
50282;BME280;36176;51.506;10.272;2022-10-26T11:52:46;99633.19;;;18.12;66.00
50282;BME280;36176;51.506;10.272;2022-10-26T11:55:25;99646.94;;;18.07;66.83
50282;BME280;36176;51.506;10.272;2022-10-26T11:57:53;99638.75;;;17.98;66.01
50282;BME280;36176;51.506;10.272;2022-10-26T12:00:26;99643.00;;;17.89;66.93
50282;BME280;36176;51.506;10.272;2022-10-26T12:03:27;99643.47;;;17.70;65.11
50282;BME280;36176;51.506;10.272;2022-10-26T12:06:18;99644.91;;;17.50;66.66
50282;BME280;36176;51.506;10.272;2022-10-26T12:09:14;99647.41;;;17.40;67.75
50282;BME280;36176;51.506;10.272;2022-10-26T12:18:39;99650.84;;;17.42;67.50
50282;BME280;36176;51.506;10.272;2022-10-26T12:21:54;99654.47;;;17.78;71.07
50282;BME280;36176;51.506;10.272;2022-10-26T12:25:21;99670.09;;;18.33;67.78
50282;BME280;36176;51.506;10.272;2022-10-26T12:28:04;99673.38;;;18.36;64.00
50282;BME280;36176;51.506;10.272;2022-10-26T12:30:44;99668.75;;;18.38;66.52
50282;BME280;36176;51.506;10.272;2022-10-26T12:33:47;99669.19;;;18.56;63.95
50282;BME280;36176;51.506;10.272;2022-10-26T12:36:46;99674.41;;;19.04;64.01
50282;BME280;36176;51.506;10.272;2022-10-26T12:48:49;99658.75;;;19.43;59.49
50282;BME280;36176;51.506;10.272;2022-10-26T12:54:39;99665.50;;;19.26;60.61
50282;BME280;36176;51.506;10.272;2022-10-26T12:57:29;99670.16;;;19.13;61.46
50282;BME280;36176;51.506;10.272;2022-10-26T13:00:05;99663.06;;;19.12;62.36
50282;BME280;36176;51.506;10.272;2022-10-26T13:45:27;99684.31;;;17.98;66.99
50282;BME280;36176;51.506;10.272;2022-10-26T13:51:38;99679.13;;;17.83;67.58
50282;BME280;36176;51.506;10.272;2022-10-26T13:54:38;99684.19;;;17.75;67.74
50282;BME280;36176;51.506;10.272;2022-10-26T13:57:54;99680.00;;;17.71;68.79
50282;BME280;36176;51.506;10.272;2022-10-26T14:00:35;99687.44;;;17.68;68.89
50282;BME280;36176;51.506;10.272;2022-10-26T14:03:42;99683.91;;;17.67;68.84
50282;BME280;36176;51.506;10.272;2022-10-26T14:09:19;99686.22;;;17.72;69.97
50282;BME280;36176;51.506;10.272;2022-10-26T14:11:53;99681.75;;;17.72;69.06
50282;BME280;36176;51.506;10.272;2022-10-26T14:14:34;99690.53;;;17.74;69.19
50282;BME280;36176;51.506;10.272;2022-10-26T14:17:03;99689.03;;;17.70;69.16
50282;BME280;36176;51.506;10.272;2022-10-26T14:19:37;99674.88;;;17.68;69.50
50282;BME280;36176;51.506;10.272;2022-10-26T14:22:05;99680.00;;;17.71;69.71
50282;BME280;36176;51.506;10.272;2022-10-26T14:24:36;99675.63;;;17.70;69.73
50282;BME280;36176;51.506;10.272;2022-10-26T14:27:15;99672.72;;;17.73;69.93
50282;BME280;36176;51.506;10.272;2022-10-26T14:29:43;99678.06;;;17.73;69.56
50282;BME280;36176;51.506;10.272;2022-10-26T14:32:26;99686.75;;;17.77;70.04
50282;BME280;36176;51.506;10.272;2022-10-26T14:34:54;99687.59;;;17.77;69.59
50282;BME280;36176;51.506;10.272;2022-10-26T14:37:37;99690.53;;;17.74;70.12
50282;BME280;36176;51.506;10.272;2022-10-26T14:40:11;99685.38;;;17.71;70.74
50282;BME280;36176;51.506;10.272;2022-10-26T14:42:41;99691.72;;;17.70;70.84
50282;BME280;36176;51.506;10.272;2022-10-26T14:45:29;99693.75;;;17.67;71.10
50282;BME280;36176;51.506;10.272;2022-10-26T14:48:31;99696.97;;;17.59;71.49
50282;BME280;36176;51.506;10.272;2022-10-26T14:51:00;99707.19;;;17.54;71.31
50282;BME280;36176;51.506;10.272;2022-10-26T14:53:48;99705.81;;;17.48;71.87
50282;BME280;36176;51.506;10.272;2022-10-26T14:58:54;99708.50;;;17.35;73.43
50282;BME280;36176;51.506;10.272;2022-10-26T15:04:06;99717.84;;;17.17;74.82
50282;BME280;36176;51.506;10.272;2022-10-26T15:06:39;99715.59;;;17.11;74.76
50282;BME280;36176;51.506;10.272;2022-10-26T15:09:31;99722.13;;;17.07;75.07
50282;BME280;36176;51.506;10.272;2022-10-26T15:12:03;99731.53;;;16.99;75.38
50282;BME280;36176;51.506;10.272;2022-10-26T15:14:30;99727.50;;;16.94;75.12
50282;BME280;36176;51.506;10.272;2022-10-26T15:16:58;99744.63;;;16.91;75.74
50282;BME280;36176;51.506;10.272;2022-10-26T15:19:26;99738.81;;;16.85;75.86
50282;BME280;36176;51.506;10.272;2022-10-26T15:21:54;99740.19;;;16.77;76.16
50282;BME280;36176;51.506;10.272;2022-10-26T15:26:58;99744.75;;;16.63;77.43
50282;BME280;36176;51.506;10.272;2022-10-26T15:29:47;99742.31;;;16.59;77.53
50282;BME280;36176;51.506;10.272;2022-10-26T15:32:30;99744.31;;;16.56;77.55
50282;BME280;36176;51.506;10.272;2022-10-26T15:37:38;99740.66;;;16.44;78.08
50282;BME280;36176;51.506;10.272;2022-10-26T15:40:06;99744.69;;;16.37;78.42
50282;BME280;36176;51.506;10.272;2022-10-26T15:42:39;99748.94;;;16.27;79.12
50282;BME280;36176;51.506;10.272;2022-10-26T15:45:31;99749.28;;;16.08;80.63
50282;BME280;36176;51.506;10.272;2022-10-26T15:48:17;99757.09;;;15.84;81.89
50282;BME280;36176;51.506;10.272;2022-10-26T15:50:45;99766.06;;;15.68;82.23
50282;BME280;36176;51.506;10.272;2022-10-26T15:53:19;99767.78;;;15.55;82.05
50282;BME280;36176;51.506;10.272;2022-10-26T15:55:48;99768.47;;;15.44;82.45
50282;BME280;36176;51.506;10.272;2022-10-26T15:58:17;99777.91;;;15.36;82.06
50282;BME280;36176;51.506;10.272;2022-10-26T16:00:45;99773.91;;;15.28;82.60
50282;BME280;36176;51.506;10.272;2022-10-26T16:03:14;99779.81;;;15.19;83.49
50282;BME280;36176;51.506;10.272;2022-10-26T16:06:01;99785.13;;;15.05;83.23
50282;BME280;36176;51.506;10.272;2022-10-26T16:08:37;99788.47;;;14.94;83.51
50282;BME280;36176;51.506;10.272;2022-10-26T16:11:05;99789.66;;;14.88;84.27
50282;BME280;36176;51.506;10.272;2022-10-26T16:13:32;99791.94;;;14.80;84.08
50282;BME280;36176;51.506;10.272;2022-10-26T16:16:00;99796.84;;;14.72;85.02
50282;BME280;36176;51.506;10.272;2022-10-26T16:18:46;99793.78;;;14.64;85.17
50282;BME280;36176;51.506;10.272;2022-10-26T16:21:17;99798.53;;;14.59;85.92
50282;BME280;36176;51.506;10.272;2022-10-26T16:23:52;99805.97;;;14.54;86.27
50282;BME280;36176;51.506;10.272;2022-10-26T16:26:20;99817.78;;;14.48;86.24
50282;BME280;36176;51.506;10.272;2022-10-26T16:28:49;99815.81;;;14.52;88.12
50282;BME280;36176;51.506;10.272;2022-10-26T16:31:18;99812.81;;;14.58;88.03
50282;BME280;36176;51.506;10.272;2022-10-26T16:33:46;99815.13;;;14.64;88.23
50282;BME280;36176;51.506;10.272;2022-10-26T16:36:13;99814.94;;;14.67;88.18
50282;BME280;36176;51.506;10.272;2022-10-26T16:38:41;99817.78;;;14.64;87.96
50282;BME280;36176;51.506;10.272;2022-10-26T16:41:10;99821.31;;;14.64;88.69
50282;BME280;36176;51.506;10.272;2022-10-26T16:43:40;99832.75;;;14.66;87.95
50282;BME280;36176;51.506;10.272;2022-10-26T16:46:16;99833.59;;;14.67;88.25
50282;BME280;36176;51.506;10.272;2022-10-26T16:48:45;99835.50;;;14.65;87.89
50282;BME280;36176;51.506;10.272;2022-10-26T16:51:18;99847.41;;;14.59;88.16
50282;BME280;36176;51.506;10.272;2022-10-26T16:53:47;99847.41;;;14.59;87.84